Time;durP1;ratioP1;P1;durP2;ratioP2;P2;SDS_P1;SDS_P2;PMS_P1;PMS_P2;Temp;Humidity;BMP_temperature;BMP_pressure;BME280_temperature;BME280_humidity;BME280_pressure;Samples;Min_cycle;Max_cycle;Signal;HPM_P1;HPM_P2
2022/02/26 00:00:36;;;;;;;15.73;11.73;;;1.50;99.90;;;;;;5013157;28;20176;-67
2022/02/26 00:03:02;;;;;;;17.40;11.97;;;1.50;99.90;;;;;;5012404;28;20185;-67
2022/02/26 00:05:27;;;;;;;18.70;11.67;;;1.50;99.90;;;;;;5011683;28;20234;-67
2022/02/26 00:07:53;;;;;;;18.93;12.43;;;1.50;99.90;;;;;;5012631;28;20196;-67
2022/02/26 00:10:18;;;;;;;22.73;12.73;;;1.50;99.90;;;;;;5013165;28;20599;-67
2022/02/26 00:12:44;;;;;;;27.30;12.67;;;1.50;99.90;;;;;;5012304;28;20176;-68
2022/02/26 00:15:10;;;;;;;15.33;11.53;;;1.50;99.90;;;;;;5012646;28;20258;-67
2022/02/26 00:17:35;;;;;;;15.90;10.87;;;1.50;99.90;;;;;;5010966;28;20200;-67
2022/02/26 00:20:03;;;;;;;17.30;11.60;;;1.40;99.90;;;;;;5012212;28;20299;-67
2022/02/26 00:22:29;;;;;;;23.93;11.57;;;1.40;99.90;;;;;;5012307;28;20600;-67
2022/02/26 00:24:54;;;;;;;20.03;12.07;;;1.40;99.90;;;;;;5011096;28;20172;-68
2022/02/26 00:27:20;;;;;;;23.67;12.37;;;1.40;99.90;;;;;;5012577;28;20200;-68
2022/02/26 00:29:46;;;;;;;17.33;10.93;;;1.40;99.90;;;;;;5012390;28;20184;-68
2022/02/26 00:32:12;;;;;;;13.90;10.63;;;1.40;99.90;;;;;;5012488;28;20176;-67
2022/02/26 00:34:37;;;;;;;17.33;11.23;;;1.40;99.90;;;;;;5012198;28;20176;-67
2022/02/26 00:37:03;;;;;;;28.80;11.47;;;1.50;99.90;;;;;;5011807;28;20192;-67
2022/02/26 00:39:29;;;;;;;14.23;10.43;;;1.50;99.90;;;;;;5012429;28;20172;-68
2022/02/26 00:41:55;;;;;;;18.90;11.27;;;1.50;99.90;;;;;;5012275;28;20187;-69
2022/02/26 00:44:20;;;;;;;22.73;12.50;;;1.50;99.90;;;;;;5010798;28;20187;-67
2022/02/26 00:46:46;;;;;;;23.67;12.40;;;1.50;99.90;;;;;;5012341;28;20618;-67
2022/02/26 00:51:59;;;;;;;13.17;11.63;;;1.50;99.90;;;;;;5012516;28;20179;-68
2022/02/26 00:54:25;;;;;;;20.60;12.07;;;1.50;99.90;;;;;;5011858;28;20184;-67
2022/02/26 00:56:50;;;;;;;17.37;12.30;;;1.50;99.90;;;;;;5011902;28;20231;-69
2022/02/26 00:59:16;;;;;;;22.07;12.37;;;1.50;99.90;;;;;;5010550;28;20250;-67
2022/02/26 01:01:42;;;;;;;26.10;12.90;;;1.50;99.90;;;;;;5012148;28;20160;-66
2022/02/26 01:04:08;;;;;;;26.23;12.30;;;1.50;99.90;;;;;;5011410;28;20176;-67
2022/02/26 01:06:34;;;;;;;18.83;11.47;;;1.60;99.90;;;;;;5012087;28;20168;-68
2022/02/26 01:09:01;;;;;;;24.43;12.10;;;1.60;99.90;;;;;;5011711;28;20200;-67
2022/02/26 01:11:27;;;;;;;26.80;11.40;;;1.70;99.90;;;;;;5011918;28;20176;-68
2022/02/26 01:13:52;;;;;;;20.97;11.40;;;1.70;99.90;;;;;;5010052;28;20726;-67
2022/02/26 01:16:18;;;;;;;25.80;12.33;;;1.80;99.90;;;;;;5011987;28;20200;-68
2022/02/26 01:18:44;;;;;;;24.57;14.30;;;1.80;99.90;;;;;;5011788;28;20537;-66
2022/02/26 01:21:09;;;;;;;22.07;12.57;;;1.90;99.90;;;;;;5011709;28;20175;-67
2022/02/26 01:23:35;;;;;;;27.90;12.87;;;2.00;99.90;;;;;;5011630;28;20168;-66
2022/02/26 01:26:00;;;;;;;16.97;12.77;;;2.00;99.90;;;;;;5011411;28;20303;-66
2022/02/26 01:28:26;;;;;;;26.00;11.67;;;2.10;99.90;;;;;;5011735;28;20200;-67
2022/02/26 01:30:52;;;;;;;28.87;12.70;;;2.20;99.90;;;;;;5011583;28;20188;-67
2022/02/26 01:33:17;;;;;;;23.07;12.60;;;2.20;99.90;;;;;;5011229;28;20176;-67
2022/02/26 01:35:43;;;;;;;23.70;14.20;;;2.20;99.90;;;;;;5010225;28;20176;-66
2022/02/26 01:38:09;;;;;;;22.30;13.43;;;2.20;99.90;;;;;;5011239;28;20199;-68
2022/02/26 01:40:34;;;;;;;29.33;13.17;;;2.20;99.90;;;;;;5010940;28;20667;-67
2022/02/26 01:43:00;;;;;;;27.67;15.37;;;2.20;99.90;;;;;;5010688;28;20184;-67
2022/02/26 01:45:26;;;;;;;25.10;14.30;;;2.30;99.90;;;;;;5010286;28;20172;-67
2022/02/26 01:47:54;;;;;;;34.10;15.50;;;2.30;99.90;;;;;;5013321;28;20195;-66
2022/02/26 01:50:20;;;;;;;34.97;14.40;;;2.30;99.90;;;;;;5015732;28;20626;-66
2022/02/26 01:52:46;;;;;;;21.97;15.10;;;2.40;99.90;;;;;;5014931;28;20548;-68
2022/02/26 01:55:12;;;;;;;31.00;13.40;;;2.40;99.90;;;;;;5015355;28;20195;-67
2022/02/26 01:57:38;;;;;;;27.57;13.57;;;2.40;99.90;;;;;;5015007;28;20228;-66
2022/02/26 02:00:06;;;;;;;26.17;14.83;;;2.50;99.90;;;;;;5015260;28;20207;-67
2022/02/26 02:02:32;;;;;;;30.77;14.80;;;2.50;99.90;;;;;;5014744;28;20263;-67
2022/02/26 02:04:58;;;;;;;23.50;14.33;;;2.50;99.90;;;;;;5013834;28;20259;-67
2022/02/26 02:07:24;;;;;;;21.50;14.23;;;2.50;99.90;;;;;;5013520;28;20218;-68
2022/02/26 02:09:50;;;;;;;21.73;14.50;;;2.50;99.90;;;;;;5015051;28;20251;-66
2022/02/26 02:12:17;;;;;;;24.77;13.83;;;2.50;99.90;;;;;;5014625;28;20287;-66
2022/02/26 02:14:44;;;;;;;22.87;13.87;;;2.50;99.90;;;;;;5013877;28;20203;-67
2022/02/26 02:17:10;;;;;;;26.47;14.17;;;2.50;99.90;;;;;;5014433;28;20247;-67
2022/02/26 02:19:36;;;;;;;27.60;15.57;;;2.60;99.90;;;;;;5015018;28;20204;-68
2022/02/26 02:22:06;;;;;;;21.60;14.57;;;2.60;99.90;;;;;;5015160;28;20187;-68
2022/02/26 02:24:33;;;;;;;34.67;15.37;;;2.60;99.90;;;;;;5014991;28;20187;-68
2022/02/26 02:27:00;;;;;;;25.93;14.23;;;2.60;99.90;;;;;;5014992;28;20177;-67
2022/02/26 02:29:26;;;;;;;21.97;15.73;;;2.60;99.90;;;;;;5014586;28;20172;-68
2022/02/26 02:31:51;;;;;;;23.67;14.23;;;2.60;99.90;;;;;;5014808;28;20180;-68
2022/02/26 02:34:17;;;;;;;20.83;14.53;;;2.60;99.90;;;;;;5014331;28;20211;-67
2022/02/26 02:36:44;;;;;;;23.53;14.60;;;2.60;99.90;;;;;;5014724;28;20212;-67
2022/02/26 02:39:11;;;;;;;25.97;15.87;;;2.60;99.90;;;;;;5014882;28;20211;-68
2022/02/26 02:41:37;;;;;;;28.07;15.53;;;2.50;99.90;;;;;;5014449;28;20185;-67
2022/02/26 02:44:03;;;;;;;23.20;15.87;;;2.50;99.90;;;;;;5014107;28;20180;-67
2022/02/26 02:46:29;;;;;;;27.57;16.27;;;2.50;99.90;;;;;;5014459;28;20521;-67
2022/02/26 02:48:55;;;;;;;27.77;15.77;;;2.50;99.90;;;;;;5014150;28;20631;-67
2022/02/26 02:51:21;;;;;;;32.17;15.70;;;2.50;99.90;;;;;;5012930;28;20696;-67
2022/02/26 02:53:47;;;;;;;29.60;14.83;;;2.40;99.90;;;;;;5012717;28;20176;-67
2022/02/26 02:56:13;;;;;;;31.60;17.90;;;2.40;99.90;;;;;;4993390;28;20187;-67
2022/02/26 02:58:38;;;;;;;26.97;15.83;;;2.40;99.90;;;;;;4994232;28;20288;-67
2022/02/26 03:01:05;;;;;;;32.40;17.17;;;2.40;99.90;;;;;;5012720;28;20180;-66
2022/02/26 03:03:30;;;;;;;26.77;14.93;;;2.30;99.90;;;;;;5013666;28;20164;-68
2022/02/26 03:05:56;;;;;;;28.43;15.53;;;2.30;99.90;;;;;;5013988;28;20207;-68
2022/02/26 03:08:24;;;;;;;27.97;17.10;;;2.30;99.90;;;;;;5012378;28;20199;-67
2022/02/26 03:10:54;;;;;;;25.90;17.27;;;2.30;99.90;;;;;;4994579;28;20231;-67
2022/02/26 03:13:21;;;;;;;32.30;17.70;;;2.30;99.90;;;;;;4993971;28;20264;-67
2022/02/26 03:15:51;;;;;;;41.03;19.13;;;2.30;99.90;;;;;;5013765;28;20191;-68
2022/02/26 03:18:18;;;;;;;37.03;19.23;;;2.30;99.90;;;;;;5013861;28;20287;-68
2022/02/26 03:20:44;;;;;;;26.73;16.73;;;2.30;99.90;;;;;;5013731;28;20172;-68
2022/02/26 03:23:09;;;;;;;32.43;18.97;;;2.20;99.90;;;;;;5013346;28;20172;-67
2022/02/26 03:25:35;;;;;;;33.63;17.90;;;2.20;99.90;;;;;;5013663;28;20188;-66
2022/02/26 03:28:01;;;;;;;30.17;18.27;;;2.20;99.90;;;;;;5013552;28;20188;-66
2022/02/26 03:30:27;;;;;;;37.63;20.37;;;2.20;99.90;;;;;;5013362;28;20187;-66
2022/02/26 03:32:53;;;;;;;28.63;18.67;;;2.10;99.90;;;;;;5013289;28;20662;-66
2022/02/26 03:35:19;;;;;;;41.47;18.67;;;2.10;99.90;;;;;;5013277;28;20676;-66
2022/02/26 03:37:45;;;;;;;25.50;18.53;;;2.00;99.90;;;;;;5012015;28;20212;-66
2022/02/26 03:40:11;;;;;;;34.97;17.80;;;1.90;99.90;;;;;;5012897;28;20204;-66
2022/02/26 03:42:37;;;;;;;32.87;20.23;;;1.90;99.90;;;;;;5013024;28;20242;-66
2022/02/26 03:45:05;;;;;;;41.33;19.03;;;1.90;99.90;;;;;;5013296;28;20172;-66
2022/02/26 03:47:30;;;;;;;35.47;19.47;;;1.90;99.90;;;;;;5013042;28;20665;-65
2022/02/26 03:49:56;;;;;;;36.03;19.23;;;1.80;99.90;;;;;;5012884;28;20195;-66
2022/02/26 03:52:22;;;;;;;35.37;18.43;;;1.80;99.90;;;;;;5012691;28;20607;-66
2022/02/26 03:54:49;;;;;;;34.80;18.90;;;1.70;99.90;;;;;;5012491;28;20198;-65
2022/02/26 03:57:15;;;;;;;42.80;20.70;;;1.70;99.90;;;;;;5012590;28;20283;-66
2022/02/26 03:59:40;;;;;;;33.80;18.90;;;1.70;99.90;;;;;;5012967;28;20256;-65
2022/02/26 04:02:06;;;;;;;37.03;20.23;;;1.60;99.90;;;;;;5012402;28;20284;-65
2022/02/26 04:04:33;;;;;;;38.57;21.00;;;1.60;99.90;;;;;;5012858;28;20629;-66
2022/02/26 04:06:58;;;;;;;34.17;20.80;;;1.60;99.90;;;;;;5013091;28;20173;-65
2022/02/26 04:09:24;;;;;;;38.20;20.40;;;1.60;99.90;;;;;;5012304;28;20622;-67
2022/02/26 04:11:50;;;;;;;49.90;22.50;;;1.50;99.90;;;;;;5012633;28;20726;-65
2022/02/26 04:14:15;;;;;;;42.20;20.53;;;1.50;99.90;;;;;;5012586;28;20642;-66
2022/02/26 04:16:41;;;;;;;37.53;20.93;;;1.50;99.90;;;;;;5012631;28;20180;-65
2022/02/26 04:19:07;;;;;;;38.27;21.37;;;1.40;99.90;;;;;;5011270;28;20615;-66
2022/02/26 04:21:33;;;;;;;38.47;23.53;;;1.50;99.90;;;;;;5012464;28;20257;-65
2022/02/26 04:23:59;;;;;;;38.57;20.30;;;1.40;99.90;;;;;;5012571;28;20535;-65
2022/02/26 04:26:26;;;;;;;45.83;20.27;;;1.40;99.90;;;;;;5012508;28;20658;-65
2022/02/26 04:28:53;;;;;;;51.40;21.90;;;1.40;99.90;;;;;;5012553;28;20669;-65
2022/02/26 04:31:20;;;;;;;32.10;20.33;;;1.40;99.90;;;;;;5012134;28;20172;-66
2022/02/26 04:33:46;;;;;;;49.47;22.00;;;1.30;99.90;;;;;;5010987;28;20175;-66
2022/02/26 04:36:12;;;;;;;36.80;20.93;;;1.30;99.90;;;;;;5012072;28;20502;-65
2022/02/26 04:38:38;;;;;;;36.63;21.80;;;1.30;99.90;;;;;;5012074;28;20208;-66
2022/02/26 04:41:05;;;;;;;46.13;20.37;;;1.30;99.90;;;;;;5011235;28;20168;-67
2022/02/26 04:43:33;;;;;;;44.83;21.03;;;1.20;99.90;;;;;;5011911;28;20226;-67
2022/02/26 04:45:59;;;;;;;41.50;21.40;;;1.20;99.90;;;;;;5012486;28;20263;-67
2022/02/26 04:48:24;;;;;;;35.07;21.33;;;1.30;99.90;;;;;;5011921;28;20269;-67
2022/02/26 04:50:50;;;;;;;44.20;22.00;;;1.20;99.90;;;;;;5012076;28;20410;-67
2022/02/26 04:53:16;;;;;;;40.20;21.67;;;1.20;99.90;;;;;;5012001;28;20172;-68
2022/02/26 04:55:42;;;;;;;46.10;21.03;;;1.20;99.90;;;;;;5012281;28;20187;-67
2022/02/26 04:58:08;;;;;;;39.90;20.63;;;1.20;99.90;;;;;;5011857;28;20210;-67
2022/02/26 05:00:34;;;;;;;34.07;19.63;;;1.10;99.90;;;;;;5011919;28;20257;-68
2022/02/26 05:03:00;;;;;;;41.23;20.13;;;1.10;99.90;;;;;;5011804;28;20175;-67
2022/02/26 05:05:26;;;;;;;33.63;19.40;;;0.90;99.90;;;;;;5012193;28;20172;-67
2022/02/26 05:07:51;;;;;;;34.07;19.20;;;0.80;99.90;;;;;;5011806;28;20203;-68
2022/02/26 05:10:17;;;;;;;34.30;21.60;;;0.80;99.90;;;;;;5012008;28;20169;-68
2022/02/26 05:12:42;;;;;;;30.63;18.87;;;0.80;99.90;;;;;;5011586;28;20211;-68
2022/02/26 05:15:09;;;;;;;33.00;19.17;;;0.70;99.90;;;;;;5010537;28;20542;-68
2022/02/26 05:17:38;;;;;;;32.27;19.63;;;0.50;99.90;;;;;;5011677;28;20573;-68
2022/02/26 05:20:04;;;;;;;31.70;18.87;;;0.50;99.90;;;;;;5011481;28;20171;-67
2022/02/26 05:22:30;;;;;;;39.00;19.83;;;0.40;99.90;;;;;;5009811;28;20195;-67
2022/02/26 05:24:55;;;;;;;29.50;20.43;;;0.40;99.90;;;;;;5010514;28;20176;-66
2022/02/26 05:27:21;;;;;;;36.87;20.93;;;0.30;99.90;;;;;;4992047;28;20251;-68
2022/02/26 05:29:47;;;;;;;33.60;20.77;;;0.50;99.90;;;;;;4992301;28;20666;-68
2022/02/26 05:32:12;;;;;;;34.60;20.37;;;0.50;99.90;;;;;;5010126;28;20180;-68
2022/02/26 05:34:38;;;;;;;32.27;19.97;;;0.60;99.90;;;;;;5011691;28;20176;-68
2022/02/26 05:37:04;;;;;;;33.90;20.37;;;0.60;99.90;;;;;;5010864;28;20203;-68
2022/02/26 05:39:29;;;;;;;39.97;21.33;;;0.70;99.90;;;;;;5011797;28;20597;-68
2022/02/26 05:41:55;;;;;;;48.77;22.60;;;0.80;99.90;;;;;;5009868;28;20176;-67
2022/02/26 05:44:24;;;;;;;31.27;20.80;;;1.00;99.90;;;;;;5011237;28;20176;-68
2022/02/26 05:46:50;;;;;;;40.70;23.07;;;1.10;99.90;;;;;;5012030;28;20585;-69
2022/02/26 05:49:16;;;;;;;35.80;22.47;;;1.30;99.90;;;;;;5011010;28;20194;-66
2022/02/26 05:51:41;;;;;;;45.67;22.00;;;1.40;99.90;;;;;;5011578;28;20255;-68
2022/02/26 05:54:07;;;;;;;39.50;21.60;;;1.40;99.90;;;;;;5011116;28;20184;-68
2022/02/26 05:56:33;;;;;;;49.27;23.23;;;1.40;99.90;;;;;;5010390;28;20187;-68
2022/02/26 05:58:58;;;;;;;44.70;22.50;;;1.50;99.90;;;;;;5011206;28;20258;-68
2022/02/26 06:01:24;;;;;;;34.90;20.83;;;1.70;99.90;;;;;;5011344;28;20514;-68
2022/02/26 06:03:49;;;;;;;41.37;21.27;;;1.80;99.90;;;;;;5011108;28;20180;-68
2022/02/26 06:06:15;;;;;;;32.67;20.73;;;1.90;99.90;;;;;;5011013;28;20180;-68
2022/02/26 06:08:41;;;;;;;31.47;19.87;;;2.00;99.90;;;;;;5011198;28;20196;-68
2022/02/26 06:11:06;;;;;;;34.37;20.57;;;2.00;99.90;;;;;;5011277;28;20211;-68
2022/02/26 06:13:32;;;;;;;35.47;21.37;;;2.00;99.90;;;;;;5010496;28;20180;-67
2022/02/26 06:15:57;;;;;;;39.43;20.40;;;2.00;99.90;;;;;;5011352;28;20183;-68
2022/02/26 06:18:24;;;;;;;38.47;21.10;;;2.00;99.90;;;;;;5010859;28;20204;-67
2022/02/26 06:20:50;;;;;;;34.53;20.73;;;2.10;99.90;;;;;;5011396;28;20164;-67
2022/02/26 06:23:15;;;;;;;43.37;21.57;;;2.10;99.90;;;;;;5010580;28;20173;-67
2022/02/26 06:25:41;;;;;;;42.47;23.10;;;2.20;99.90;;;;;;5011201;28;20173;-68
2022/02/26 06:28:10;;;;;;;49.97;23.97;;;2.30;99.90;;;;;;5011283;28;20200;-68
2022/02/26 06:30:36;;;;;;;35.33;26.53;;;2.30;99.90;;;;;;5010962;28;20303;-68
2022/02/26 06:33:01;;;;;;;44.20;27.90;;;2.40;99.90;;;;;;5011370;28;20176;-67
2022/02/26 06:35:27;;;;;;;40.20;26.97;;;2.50;99.90;;;;;;5014586;28;20173;-68
2022/02/26 06:37:52;;;;;;;35.13;26.03;;;2.50;99.90;;;;;;5014474;28;20559;-68
2022/02/26 06:40:18;;;;;;;47.73;26.40;;;2.60;99.90;;;;;;5013563;28;20168;-68
2022/02/26 06:42:45;;;;;;;39.20;22.87;;;2.60;99.90;;;;;;5014157;28;20258;-67
2022/02/26 06:45:11;;;;;;;41.50;22.80;;;2.60;99.90;;;;;;5014940;28;20161;-68
2022/02/26 06:47:36;;;;;;;45.83;24.23;;;2.70;99.90;;;;;;5013071;28;20587;-68
2022/02/26 06:50:03;;;;;;;41.23;23.10;;;2.70;99.90;;;;;;5014225;28;20191;-66
2022/02/26 06:52:29;;;;;;;44.93;23.30;;;2.80;99.90;;;;;;5014290;28;20172;-67
2022/02/26 06:54:55;;;;;;;45.07;22.30;;;2.80;99.90;;;;;;5014398;28;20204;-67
2022/02/26 06:57:22;;;;;;;44.67;23.77;;;2.80;99.90;;;;;;5012419;28;21522;-67
2022/02/26 06:59:47;;;;;;;46.30;26.40;;;2.90;99.90;;;;;;5014414;28;20168;-68
2022/02/26 07:02:13;;;;;;;42.73;25.83;;;2.90;99.90;;;;;;5012526;28;20314;-68
2022/02/26 07:04:41;;;;;;;45.00;25.13;;;3.00;99.90;;;;;;5012872;28;20173;-67
2022/02/26 07:07:07;;;;;;;42.10;23.23;;;3.00;99.90;;;;;;5014197;28;20191;-68
2022/02/26 07:09:33;;;;;;;44.60;25.43;;;3.10;99.90;;;;;;5013971;28;20183;-67
2022/02/26 07:11:59;;;;;;;43.50;25.47;;;3.10;99.90;;;;;;5014144;28;20168;-68
2022/02/26 07:14:24;;;;;;;35.67;24.13;;;3.10;99.90;;;;;;5012627;28;20230;-68
2022/02/26 07:16:50;;;;;;;45.17;24.57;;;3.10;99.90;;;;;;5014343;28;20219;-67
2022/02/26 07:19:16;;;;;;;37.33;23.27;;;3.20;99.90;;;;;;5013368;28;20186;-67
2022/02/26 07:21:42;;;;;;;48.37;23.60;;;3.30;99.90;;;;;;5014325;28;20160;-67
2022/02/26 07:24:08;;;;;;;43.33;24.83;;;3.30;99.90;;;;;;5013313;28;20191;-68
2022/02/26 07:26:34;;;;;;;50.83;24.73;;;3.40;99.90;;;;;;5013991;28;20231;-68
2022/02/26 07:28:59;;;;;;;35.90;22.77;;;3.50;99.90;;;;;;5012838;28;20278;-67
2022/02/26 07:31:25;;;;;;;34.30;23.17;;;3.70;99.90;;;;;;5012985;28;20252;-66
2022/02/26 07:33:51;;;;;;;37.13;23.40;;;3.80;99.90;;;;;;5013241;28;20263;-67
2022/02/26 07:36:17;;;;;;;42.90;23.30;;;3.90;99.90;;;;;;5013144;28;20283;-67
2022/02/26 07:38:43;;;;;;;39.20;22.03;;;4.00;99.90;;;;;;5013203;28;20276;-67
2022/02/26 07:41:10;;;;;;;37.47;21.47;;;4.10;99.90;;;;;;5011762;28;20172;-67
2022/02/26 07:43:37;;;;;;;38.70;23.77;;;3.90;99.90;;;;;;5013113;28;20221;-66
2022/02/26 07:46:04;;;;;;;37.30;21.50;;;3.90;99.90;;;;;;5011924;28;20172;-66
2022/02/26 07:48:30;;;;;;;43.20;21.80;;;3.90;99.90;;;;;;5013201;28;20696;-67
2022/02/26 07:50:56;;;;;;;40.43;23.40;;;3.90;99.90;;;;;;5012810;28;20168;-66
2022/02/26 07:53:23;;;;;;;33.17;24.40;;;3.90;99.90;;;;;;5012441;28;20176;-67
2022/02/26 07:55:49;;;;;;;32.27;23.03;;;3.90;99.90;;;;;;5011523;28;20545;-67
2022/02/26 07:58:15;;;;;;;39.57;24.50;;;3.90;99.90;;;;;;5013026;28;20236;-67
2022/02/26 08:00:40;;;;;;;44.50;22.77;;;3.90;99.90;;;;;;5012704;28;20238;-67
2022/02/26 08:03:06;;;;;;;48.63;23.37;;;3.90;99.90;;;;;;5012831;28;20211;-67
2022/02/26 08:05:32;;;;;;;69.53;24.23;;;4.00;99.90;;;;;;5012677;28;20181;-67
2022/02/26 08:07:58;;;;;;;45.20;24.00;;;4.10;99.90;;;;;;5012999;28;20199;-68
2022/02/26 08:10:25;;;;;;;41.17;21.90;;;4.20;99.90;;;;;;5012622;28;20180;-67
2022/02/26 08:12:52;;;;;;;40.93;23.70;;;4.40;99.90;;;;;;5011442;28;20654;-67
2022/02/26 08:15:20;;;;;;;30.67;21.20;;;4.60;99.90;;;;;;5012555;28;20176;-67
2022/02/26 08:17:46;;;;;;;44.90;21.73;;;4.70;99.90;;;;;;5013082;28;20207;-68
2022/02/26 08:20:13;;;;;;;36.63;20.57;;;4.70;99.90;;;;;;5012268;28;20172;-67
2022/02/26 08:22:39;;;;;;;34.53;21.70;;;4.70;99.90;;;;;;5012671;28;20205;-67
2022/02/26 08:25:05;;;;;;;36.67;21.63;;;4.70;99.90;;;;;;5012759;28;20657;-67
2022/02/26 08:27:31;;;;;;;39.07;22.37;;;4.80;99.90;;;;;;5012561;28;20200;-67
2022/02/26 08:29:57;;;;;;;49.80;23.40;;;4.80;99.90;;;;;;5012331;28;20717;-67
2022/02/26 08:32:23;;;;;;;32.80;22.20;;;5.00;99.90;;;;;;5012330;28;20199;-67
2022/02/26 08:34:48;;;;;;;34.53;24.00;;;5.10;99.90;;;;;;5012209;28;20184;-68
2022/02/26 08:37:14;;;;;;;41.00;23.47;;;5.20;99.90;;;;;;5012777;28;20282;-66
2022/02/26 08:39:40;;;;;;;44.33;22.83;;;5.30;99.90;;;;;;5012177;28;20172;-66
2022/02/26 08:42:07;;;;;;;35.97;23.27;;;5.30;99.90;;;;;;5012216;28;20172;-67
2022/02/26 08:44:33;;;;;;;39.00;23.67;;;5.40;99.90;;;;;;5012156;28;20175;-66
2022/02/26 08:46:59;;;;;;;42.00;26.13;;;5.60;99.90;;;;;;5012319;28;20183;-67
2022/02/26 08:49:25;;;;;;;45.77;24.67;;;5.70;99.90;;;;;;5011776;28;20179;-67
2022/02/26 08:51:51;;;;;;;46.87;25.70;;;5.80;99.90;;;;;;5012226;28;20172;-67
2022/02/26 08:54:16;;;;;;;44.27;24.63;;;6.00;99.90;;;;;;5011802;28;20561;-67
2022/02/26 08:56:42;;;;;;;45.67;25.40;;;6.20;99.90;;;;;;5011595;28;20172;-66
2022/02/26 08:59:08;;;;;;;63.20;29.23;;;6.30;99.90;;;;;;5011531;28;20654;-67
2022/02/26 09:01:33;;;;;;;56.00;27.67;;;6.40;99.90;;;;;;5010741;28;20176;-66
2022/02/26 09:03:59;;;;;;;44.13;25.40;;;6.40;99.90;;;;;;5011651;28;20176;-66
2022/02/26 09:06:25;;;;;;;48.10;25.97;;;6.50;99.90;;;;;;5011824;28;20223;-67
2022/02/26 09:08:50;;;;;;;47.97;25.67;;;6.60;99.90;;;;;;5011517;28;20613;-66
2022/02/26 09:11:16;;;;;;;51.00;26.80;;;6.70;99.90;;;;;;5011850;28;20180;-67
2022/02/26 09:13:44;;;;;;;43.50;26.17;;;6.90;99.90;;;;;;5011331;28;20191;-66
2022/02/26 09:16:11;;;;;;;32.63;21.17;;;7.00;99.90;;;;;;5011775;28;20583;-67
2022/02/26 09:18:36;;;;;;;34.17;20.97;;;6.90;99.90;;;;;;5011236;28;20215;-67
2022/02/26 09:21:03;;;;;;;32.87;18.57;;;7.10;99.90;;;;;;5012171;28;20177;-67
2022/02/26 09:23:30;;;;;;;27.17;18.60;;;7.60;99.90;;;;;;5010066;28;20664;-67
2022/02/26 09:25:56;;;;;;;27.67;17.37;;;8.10;99.90;;;;;;5011860;28;20168;-66
2022/02/26 09:28:21;;;;;;;29.53;17.80;;;8.40;99.90;;;;;;5010669;28;20211;-65
2022/02/26 09:30:47;;;;;;;28.67;17.60;;;8.40;99.90;;;;;;5010971;28;20653;-67
2022/02/26 09:33:13;;;;;;;38.27;19.77;;;8.40;99.90;;;;;;5011339;28;20179;-66
2022/02/26 09:35:39;;;;;;;27.70;19.13;;;8.20;99.90;;;;;;5011513;28;20172;-67
2022/02/26 09:38:05;;;;;;;27.77;19.03;;;8.10;99.90;;;;;;5011293;28;20254;-68
2022/02/26 09:40:31;;;;;;;28.33;19.37;;;8.10;99.90;;;;;;5011732;28;20220;-67
2022/02/26 09:42:59;;;;;;;32.27;18.80;;;8.40;99.90;;;;;;5010762;28;20687;-68
2022/02/26 09:45:25;;;;;;;31.30;17.93;;;8.70;99.90;;;;;;5011367;28;20168;-67
2022/02/26 09:47:50;;;;;;;32.17;18.60;;;8.80;99.90;;;;;;5011535;28;20245;-68
2022/02/26 09:50:16;;;;;;;28.57;19.83;;;8.70;99.90;;;;;;5009577;28;20216;-67
2022/02/26 09:52:42;;;;;;;34.17;18.87;;;8.50;99.90;;;;;;5010105;28;20204;-67
2022/02/26 09:55:09;;;;;;;30.87;19.43;;;8.40;99.90;;;;;;5010151;28;20172;-68
2022/02/26 09:57:35;;;;;;;27.83;19.63;;;8.40;99.90;;;;;;5011331;28;20227;-66
2022/02/26 10:00:00;;;;;;;33.07;20.00;;;8.30;99.90;;;;;;5011571;28;20207;-67
2022/02/26 10:02:35;;;;;;;32.33;19.03;;;8.40;99.90;;;;;;5011089;28;20176;-67
2022/02/26 10:05:03;;;;;;;30.27;17.93;;;8.30;99.90;;;;;;5010294;28;20542;-70
2022/02/26 10:07:32;;;;;;;33.03;19.07;;;8.60;99.90;;;;;;5011101;28;20226;-67
2022/02/26 10:09:58;;;;;;;28.80;17.47;;;9.20;99.90;;;;;;5015259;28;20172;-68
2022/02/26 10:12:36;;;;;;;26.57;15.97;;;9.60;99.90;;;;;;5014839;28;20540;-67
2022/02/26 10:15:04;;;;;;;28.50;18.17;;;10.40;99.90;;;;;;5015254;28;20175;-67
2022/02/26 10:17:33;;;;;;;27.43;16.60;;;11.20;99.90;;;;;;5014792;28;20294;-67
2022/02/26 10:20:07;;;;;;;25.87;16.17;;;11.80;99.90;;;;;;5014624;28;20658;-67
2022/02/26 10:22:35;;;;;;;26.07;15.90;;;11.50;99.90;;;;;;5014821;28;20207;-67
2022/02/26 10:25:08;;;;;;;37.07;17.37;;;10.80;99.90;;;;;;5014947;28;20164;-67
2022/02/26 10:27:45;;;;;;;28.20;14.63;;;10.60;99.90;;;;;;5014550;28;20196;-67
2022/02/26 10:30:15;;;;;;;23.60;15.07;;;11.10;99.90;;;;;;5014874;28;20701;-67
2022/02/26 10:32:41;;;;;;;21.77;14.70;;;11.70;99.90;;;;;;5014647;28;20173;-68
2022/02/26 10:35:08;;;;;;;27.67;13.80;;;11.90;99.90;;;;;;5013487;28;20179;-67
2022/02/26 10:37:35;;;;;;;24.70;13.43;;;11.90;99.90;;;;;;5014159;28;20289;-67
2022/02/26 10:40:01;;;;;;;26.00;14.57;;;11.90;99.90;;;;;;5014498;28;20590;-67
2022/02/26 10:42:29;;;;;;;21.47;13.50;;;11.70;99.90;;;;;;5014448;28;20207;-67
2022/02/26 10:45:22;;;;;;;21.40;14.97;;;11.70;99.90;;;;;;5014291;28;20603;-67
2022/02/26 10:47:49;;;;;;;21.23;13.87;;;11.60;99.90;;;;;;5014180;28;20208;-67
2022/02/26 10:50:24;;;;;;;23.30;14.57;;;11.50;99.90;;;;;;5013898;28;20184;-66
2022/02/26 10:52:58;;;;;;;22.63;13.80;;;11.40;99.90;;;;;;5014181;28;20549;-67
2022/02/26 10:55:57;;;;;;;22.30;13.63;;;11.70;99.90;;;;;;5013806;28;20193;-67
2022/02/26 10:58:27;;;;;;;26.00;12.03;;;12.20;99.90;;;;;;5013824;28;20788;-67
2022/02/26 11:01:04;;;;;;;21.20;13.23;;;12.40;99.90;;;;;;5014278;28;20188;-68
2022/02/26 11:03:29;;;;;;;19.10;13.00;;;12.80;99.90;;;;;;5013611;28;20620;-66
2022/02/26 11:05:55;;;;;;;24.67;13.73;;;13.10;99.90;;;;;;5014193;28;20214;-67
2022/02/26 11:08:22;;;;;;;21.27;13.00;;;13.10;99.90;;;;;;5012403;28;20210;-68
2022/02/26 11:10:51;;;;;;;21.77;13.10;;;13.20;99.90;;;;;;5014180;28;20251;-67
2022/02/26 11:13:19;;;;;;;23.83;13.47;;;13.30;99.90;;;;;;5013548;28;20176;-65
2022/02/26 11:15:47;;;;;;;27.17;13.97;;;13.70;99.90;;;;;;5013636;28;20626;-68
2022/02/26 11:18:17;;;;;;;19.13;13.40;;;14.00;99.90;;;;;;5012548;28;20247;-68
2022/02/26 11:20:42;;;;;;;20.50;13.43;;;14.10;99.90;;;;;;5013350;28;20688;-68
2022/02/26 11:23:09;;;;;;;22.47;13.60;;;14.20;99.90;;;;;;5014033;28;20169;-68
2022/02/26 11:25:34;;;;;;;23.60;13.80;;;14.20;99.90;;;;;;5013713;28;20183;-68
2022/02/26 11:28:01;;;;;;;23.67;14.33;;;14.20;99.90;;;;;;5013648;28;20200;-67
2022/02/26 11:30:33;;;;;;;20.97;13.77;;;13.80;99.90;;;;;;5013629;28;20203;-68
2022/02/26 11:33:01;;;;;;;24.53;14.17;;;13.70;99.90;;;;;;5013217;28;20660;-66
2022/02/26 11:35:28;;;;;;;25.17;14.30;;;14.10;99.90;;;;;;5013366;28;20179;-67
2022/02/26 11:38:03;;;;;;;21.43;13.97;;;14.30;99.90;;;;;;5013023;28;20212;-66
2022/02/26 11:40:30;;;;;;;25.13;14.27;;;14.40;99.90;;;;;;5013702;28;20171;-66
2022/02/26 11:42:56;;;;;;;31.87;17.27;;;14.40;99.90;;;;;;5013036;28;20195;-66
2022/02/26 11:45:27;;;;;;;20.37;13.50;;;14.30;99.90;;;;;;5013739;28;20180;-66
2022/02/26 11:47:58;;;;;;;23.43;12.90;;;13.60;99.90;;;;;;5012945;28;20200;-65
2022/02/26 11:50:31;;;;;;;26.60;12.57;;;13.30;99.90;;;;;;5013052;28;20184;-66
2022/02/26 11:53:01;;;;;;;23.57;12.90;;;12.90;99.90;;;;;;5011453;28;20532;-65
2022/02/26 11:55:41;;;;;;;27.90;13.87;;;12.50;99.90;;;;;;5012949;28;20251;-66
2022/02/26 11:58:38;;;;;;;29.73;14.60;;;12.40;99.90;;;;;;5013028;28;20576;-66
2022/02/26 12:01:13;;;;;;;25.13;12.70;;;12.50;99.90;;;;;;5012719;28;20528;-66
2022/02/26 12:03:39;;;;;;;23.83;14.10;;;12.20;99.90;;;;;;5012136;28;20196;-67
2022/02/26 12:06:08;;;;;;;27.33;13.13;;;12.00;99.90;;;;;;5011384;28;20275;-66
2022/02/26 12:08:41;;;;;;;20.60;12.87;;;11.80;99.90;;;;;;5011285;28;20211;-66
2022/02/26 12:11:23;;;;;;;24.40;12.20;;;12.00;99.90;;;;;;5012456;28;20200;-66
2022/02/26 12:13:59;;;;;;;18.70;10.60;;;12.40;99.90;;;;;;5012787;28;20586;-66
2022/02/26 12:16:28;;;;;;;17.53;9.43;;;12.70;99.90;;;;;;5012592;28;20277;-68
2022/02/26 12:19:08;;;;;;;19.43;10.60;;;12.80;99.90;;;;;;5012591;28;20211;-66
2022/02/26 12:21:43;;;;;;;23.00;12.27;;;12.80;99.90;;;;;;4992847;28;20592;-67
2022/02/26 12:24:14;;;;;;;21.83;11.00;;;12.20;99.90;;;;;;4992979;28;20642;-68
2022/02/26 12:26:46;;;;;;;21.23;11.33;;;11.90;99.90;;;;;;4993240;28;20271;-66
2022/02/26 12:29:44;;;;;;;20.97;11.30;;;11.50;99.90;;;;;;4992945;28;20543;-68
2022/02/26 12:32:22;;;;;;;17.17;10.93;;;11.00;99.90;;;;;;4969315;28;20540;-67
2022/02/26 12:34:51;;;;;;;19.17;12.20;;;10.40;99.90;;;;;;4996441;28;20175;-67
2022/02/26 12:37:36;;;;;;;16.77;11.30;;;10.10;99.90;;;;;;5012007;28;20212;-67